sensor_id;sensor_type;location;lat;lon;timestamp;P1;durP1;ratioP1;P2;durP2;ratioP2
21326;SDS011;10822;51.532;6.770;2022-12-24T00:02:00;16.45;;;3.08;;
21326;SDS011;10822;51.532;6.770;2022-12-24T00:04:26;18.85;;;3.20;;
21326;SDS011;10822;51.532;6.770;2022-12-24T00:06:52;14.60;;;2.90;;
21326;SDS011;10822;51.532;6.770;2022-12-24T00:09:18;12.88;;;3.42;;
21326;SDS011;10822;51.532;6.770;2022-12-24T00:11:44;16.73;;;3.97;;
21326;SDS011;10822;51.532;6.770;2022-12-24T00:14:10;15.57;;;3.85;;
21326;SDS011;10822;51.532;6.770;2022-12-24T00:16:35;14.05;;;2.95;;
21326;SDS011;10822;51.532;6.770;2022-12-24T00:19:01;16.05;;;3.45;;
21326;SDS011;10822;51.532;6.770;2022-12-24T00:21:27;19.73;;;3.22;;
21326;SDS011;10822;51.532;6.770;2022-12-24T00:23:53;14.77;;;2.88;;
21326;SDS011;10822;51.532;6.770;2022-12-24T00:26:19;18.00;;;3.28;;
21326;SDS011;10822;51.532;6.770;2022-12-24T00:28:45;17.65;;;3.92;;
21326;SDS011;10822;51.532;6.770;2022-12-24T00:31:13;17.13;;;3.75;;
21326;SDS011;10822;51.532;6.770;2022-12-24T00:33:39;19.20;;;3.10;;
21326;SDS011;10822;51.532;6.770;2022-12-24T00:36:05;22.15;;;3.55;;
21326;SDS011;10822;51.532;6.770;2022-12-24T00:38:31;21.30;;;3.33;;
21326;SDS011;10822;51.532;6.770;2022-12-24T00:41:00;14.45;;;2.70;;
21326;SDS011;10822;51.532;6.770;2022-12-24T00:43:27;17.05;;;3.33;;
21326;SDS011;10822;51.532;6.770;2022-12-24T00:45:54;21.98;;;3.90;;
21326;SDS011;10822;51.532;6.770;2022-12-24T00:48:20;17.42;;;3.80;;
21326;SDS011;10822;51.532;6.770;2022-12-24T00:50:46;15.23;;;3.22;;
21326;SDS011;10822;51.532;6.770;2022-12-24T00:53:12;10.52;;;2.85;;
21326;SDS011;10822;51.532;6.770;2022-12-24T00:55:38;18.00;;;3.35;;
21326;SDS011;10822;51.532;6.770;2022-12-24T00:58:04;18.92;;;3.55;;
21326;SDS011;10822;51.532;6.770;2022-12-24T01:00:30;17.55;;;3.58;;
21326;SDS011;10822;51.532;6.770;2022-12-24T01:02:56;16.48;;;4.35;;
21326;SDS011;10822;51.532;6.770;2022-12-24T01:05:22;19.80;;;4.68;;
21326;SDS011;10822;51.532;6.770;2022-12-24T01:07:48;26.77;;;3.55;;
21326;SDS011;10822;51.532;6.770;2022-12-24T01:10:16;13.57;;;3.53;;
21326;SDS011;10822;51.532;6.770;2022-12-24T01:12:42;17.00;;;3.05;;
21326;SDS011;10822;51.532;6.770;2022-12-24T01:15:09;18.17;;;3.65;;
21326;SDS011;10822;51.532;6.770;2022-12-24T01:17:36;16.50;;;3.30;;
21326;SDS011;10822;51.532;6.770;2022-12-24T01:20:03;15.60;;;3.30;;
21326;SDS011;10822;51.532;6.770;2022-12-24T01:22:30;17.50;;;2.78;;
21326;SDS011;10822;51.532;6.770;2022-12-24T01:24:56;22.02;;;3.78;;
21326;SDS011;10822;51.532;6.770;2022-12-24T01:27:22;19.40;;;3.53;;
21326;SDS011;10822;51.532;6.770;2022-12-24T01:29:48;18.63;;;3.47;;
21326;SDS011;10822;51.532;6.770;2022-12-24T01:32:14;18.20;;;3.30;;
21326;SDS011;10822;51.532;6.770;2022-12-24T01:34:40;19.35;;;3.97;;
21326;SDS011;10822;51.532;6.770;2022-12-24T01:37:06;18.35;;;3.47;;
21326;SDS011;10822;51.532;6.770;2022-12-24T01:39:32;17.30;;;3.38;;
21326;SDS011;10822;51.532;6.770;2022-12-24T01:41:58;21.00;;;3.17;;
21326;SDS011;10822;51.532;6.770;2022-12-24T01:44:43;21.05;;;4.05;;
21326;SDS011;10822;51.532;6.770;2022-12-24T01:49:35;20.35;;;3.42;;
21326;SDS011;10822;51.532;6.770;2022-12-24T01:52:06;19.45;;;3.42;;
21326;SDS011;10822;51.532;6.770;2022-12-24T01:54:35;22.70;;;4.22;;
21326;SDS011;10822;51.532;6.770;2022-12-24T01:57:04;15.60;;;2.78;;
21326;SDS011;10822;51.532;6.770;2022-12-24T01:59:32;14.02;;;2.75;;
21326;SDS011;10822;51.532;6.770;2022-12-24T02:01:58;16.67;;;3.65;;
21326;SDS011;10822;51.532;6.770;2022-12-24T02:04:33;21.20;;;3.60;;
21326;SDS011;10822;51.532;6.770;2022-12-24T02:07:01;24.80;;;4.25;;
21326;SDS011;10822;51.532;6.770;2022-12-24T02:09:27;22.67;;;3.78;;
21326;SDS011;10822;51.532;6.770;2022-12-24T02:11:53;18.83;;;3.85;;
21326;SDS011;10822;51.532;6.770;2022-12-24T02:14:19;19.95;;;3.65;;
21326;SDS011;10822;51.532;6.770;2022-12-24T02:21:45;21.58;;;4.63;;
21326;SDS011;10822;51.532;6.770;2022-12-24T02:31:49;21.13;;;4.13;;
21326;SDS011;10822;51.532;6.770;2022-12-24T02:34:18;18.75;;;4.25;;
21326;SDS011;10822;51.532;6.770;2022-12-24T02:36:47;21.05;;;4.65;;
21326;SDS011;10822;51.532;6.770;2022-12-24T02:39:16;16.73;;;3.42;;
21326;SDS011;10822;51.532;6.770;2022-12-24T02:41:48;24.13;;;4.20;;
21326;SDS011;10822;51.532;6.770;2022-12-24T02:44:31;21.77;;;3.83;;
21326;SDS011;10822;51.532;6.770;2022-12-24T02:46:59;23.85;;;4.15;;
21326;SDS011;10822;51.532;6.770;2022-12-24T02:49:25;17.90;;;3.85;;
21326;SDS011;10822;51.532;6.770;2022-12-24T02:51:51;18.90;;;3.80;;
21326;SDS011;10822;51.532;6.770;2022-12-24T02:54:17;20.75;;;4.00;;
21326;SDS011;10822;51.532;6.770;2022-12-24T02:57:00;18.83;;;4.65;;
21326;SDS011;10822;51.532;6.770;2022-12-24T03:12:05;20.95;;;4.22;;
21326;SDS011;10822;51.532;6.770;2022-12-24T03:14:32;22.58;;;4.45;;
21326;SDS011;10822;51.532;6.770;2022-12-24T03:16:59;18.33;;;3.50;;
21326;SDS011;10822;51.532;6.770;2022-12-24T03:19:26;18.98;;;3.65;;
21326;SDS011;10822;51.532;6.770;2022-12-24T03:21:53;20.05;;;3.42;;
21326;SDS011;10822;51.532;6.770;2022-12-24T03:24:21;20.77;;;3.42;;
21326;SDS011;10822;51.532;6.770;2022-12-24T03:26:47;19.88;;;3.75;;
21326;SDS011;10822;51.532;6.770;2022-12-24T03:29:13;20.13;;;3.75;;
21326;SDS011;10822;51.532;6.770;2022-12-24T03:31:43;22.60;;;4.32;;
21326;SDS011;10822;51.532;6.770;2022-12-24T03:34:10;18.67;;;3.22;;
21326;SDS011;10822;51.532;6.770;2022-12-24T03:36:36;27.05;;;5.30;;
21326;SDS011;10822;51.532;6.770;2022-12-24T03:39:03;20.17;;;4.60;;
21326;SDS011;10822;51.532;6.770;2022-12-24T03:41:29;24.08;;;4.30;;
21326;SDS011;10822;51.532;6.770;2022-12-24T03:43:55;24.00;;;5.07;;
21326;SDS011;10822;51.532;6.770;2022-12-24T03:46:20;18.67;;;3.67;;
21326;SDS011;10822;51.532;6.770;2022-12-24T03:48:46;15.10;;;3.22;;
21326;SDS011;10822;51.532;6.770;2022-12-24T03:51:17;22.45;;;3.42;;
21326;SDS011;10822;51.532;6.770;2022-12-24T03:53:43;17.92;;;3.53;;
21326;SDS011;10822;51.532;6.770;2022-12-24T03:56:09;19.83;;;3.83;;
21326;SDS011;10822;51.532;6.770;2022-12-24T03:58:35;20.30;;;3.80;;
21326;SDS011;10822;51.532;6.770;2022-12-24T04:01:01;16.42;;;3.03;;
21326;SDS011;10822;51.532;6.770;2022-12-24T04:03:27;22.65;;;3.58;;
21326;SDS011;10822;51.532;6.770;2022-12-24T04:06:03;18.55;;;3.70;;
21326;SDS011;10822;51.532;6.770;2022-12-24T04:08:29;14.40;;;3.38;;
21326;SDS011;10822;51.532;6.770;2022-12-24T04:10:55;19.50;;;3.17;;
21326;SDS011;10822;51.532;6.770;2022-12-24T04:13:21;21.73;;;3.80;;
21326;SDS011;10822;51.532;6.770;2022-12-24T04:16:00;19.00;;;3.13;;
21326;SDS011;10822;51.532;6.770;2022-12-24T04:18:27;20.17;;;3.38;;
21326;SDS011;10822;51.532;6.770;2022-12-24T04:20:53;17.95;;;3.78;;
21326;SDS011;10822;51.532;6.770;2022-12-24T04:23:19;22.00;;;3.53;;
21326;SDS011;10822;51.532;6.770;2022-12-24T04:25:45;17.08;;;2.88;;
21326;SDS011;10822;51.532;6.770;2022-12-24T04:28:12;19.67;;;3.53;;
21326;SDS011;10822;51.532;6.770;2022-12-24T04:30:38;17.63;;;2.95;;
21326;SDS011;10822;51.532;6.770;2022-12-24T04:33:04;21.52;;;3.25;;
21326;SDS011;10822;51.532;6.770;2022-12-24T04:35:30;15.77;;;3.20;;
21326;SDS011;10822;51.532;6.770;2022-12-24T04:37:56;16.08;;;3.72;;
21326;SDS011;10822;51.532;6.770;2022-12-24T04:40:22;18.90;;;4.28;;
21326;SDS011;10822;51.532;6.770;2022-12-24T04:42:48;15.02;;;3.63;;
21326;SDS011;10822;51.532;6.770;2022-12-24T04:45:15;12.88;;;2.78;;
21326;SDS011;10822;51.532;6.770;2022-12-24T04:47:41;19.88;;;3.53;;
21326;SDS011;10822;51.532;6.770;2022-12-24T04:50:07;23.25;;;4.25;;
21326;SDS011;10822;51.532;6.770;2022-12-24T04:52:33;14.35;;;3.20;;
21326;SDS011;10822;51.532;6.770;2022-12-24T04:54:59;17.30;;;3.05;;
21326;SDS011;10822;51.532;6.770;2022-12-24T04:57:25;17.73;;;3.83;;
21326;SDS011;10822;51.532;6.770;2022-12-24T04:59:51;21.23;;;3.85;;
21326;SDS011;10822;51.532;6.770;2022-12-24T05:02:17;15.55;;;2.80;;
21326;SDS011;10822;51.532;6.770;2022-12-24T05:04:43;16.00;;;2.67;;
21326;SDS011;10822;51.532;6.770;2022-12-24T05:07:09;11.70;;;3.10;;
21326;SDS011;10822;51.532;6.770;2022-12-24T05:09:35;13.85;;;2.63;;
21326;SDS011;10822;51.532;6.770;2022-12-24T05:12:01;12.63;;;2.78;;
21326;SDS011;10822;51.532;6.770;2022-12-24T05:14:27;15.80;;;3.45;;
21326;SDS011;10822;51.532;6.770;2022-12-24T05:16:53;9.98;;;2.75;;
21326;SDS011;10822;51.532;6.770;2022-12-24T05:19:19;13.98;;;2.78;;
21326;SDS011;10822;51.532;6.770;2022-12-24T05:21:45;15.43;;;2.53;;
21326;SDS011;10822;51.532;6.770;2022-12-24T05:24:30;10.73;;;2.40;;
21326;SDS011;10822;51.532;6.770;2022-12-24T05:27:15;10.63;;;2.50;;
21326;SDS011;10822;51.532;6.770;2022-12-24T05:29:41;17.20;;;2.92;;
21326;SDS011;10822;51.532;6.770;2022-12-24T05:32:07;15.55;;;2.40;;
21326;SDS011;10822;51.532;6.770;2022-12-24T05:34:33;14.07;;;2.83;;
21326;SDS011;10822;51.532;6.770;2022-12-24T05:36:59;13.23;;;2.50;;
21326;SDS011;10822;51.532;6.770;2022-12-24T05:39:25;19.00;;;3.13;;
21326;SDS011;10822;51.532;6.770;2022-12-24T05:41:51;12.38;;;2.63;;
21326;SDS011;10822;51.532;6.770;2022-12-24T05:44:17;13.90;;;3.20;;
21326;SDS011;10822;51.532;6.770;2022-12-24T05:46:43;16.38;;;2.85;;
21326;SDS011;10822;51.532;6.770;2022-12-24T05:49:09;15.45;;;3.60;;
21326;SDS011;10822;51.532;6.770;2022-12-24T05:51:35;15.15;;;3.55;;
21326;SDS011;10822;51.532;6.770;2022-12-24T05:54:01;13.70;;;3.10;;
21326;SDS011;10822;51.532;6.770;2022-12-24T05:56:27;16.63;;;3.05;;
21326;SDS011;10822;51.532;6.770;2022-12-24T05:58:53;13.80;;;2.58;;
21326;SDS011;10822;51.532;6.770;2022-12-24T06:01:19;10.43;;;3.22;;
21326;SDS011;10822;51.532;6.770;2022-12-24T06:03:46;17.05;;;3.03;;
21326;SDS011;10822;51.532;6.770;2022-12-24T06:06:14;20.20;;;3.20;;
21326;SDS011;10822;51.532;6.770;2022-12-24T06:08:43;12.77;;;3.90;;
21326;SDS011;10822;51.532;6.770;2022-12-24T06:11:10;17.08;;;3.22;;
21326;SDS011;10822;51.532;6.770;2022-12-24T06:13:36;14.32;;;3.70;;
21326;SDS011;10822;51.532;6.770;2022-12-24T06:16:03;19.25;;;2.85;;
21326;SDS011;10822;51.532;6.770;2022-12-24T06:18:29;13.52;;;3.05;;
21326;SDS011;10822;51.532;6.770;2022-12-24T06:20:56;13.43;;;3.15;;
21326;SDS011;10822;51.532;6.770;2022-12-24T06:23:22;15.98;;;2.90;;
21326;SDS011;10822;51.532;6.770;2022-12-24T06:25:48;14.38;;;3.08;;
21326;SDS011;10822;51.532;6.770;2022-12-24T06:28:14;13.95;;;3.63;;
21326;SDS011;10822;51.532;6.770;2022-12-24T06:30:40;13.63;;;3.03;;
21326;SDS011;10822;51.532;6.770;2022-12-24T06:33:06;15.43;;;2.88;;
21326;SDS011;10822;51.532;6.770;2022-12-24T06:35:32;18.15;;;3.28;;
21326;SDS011;10822;51.532;6.770;2022-12-24T06:37:59;19.33;;;4.00;;
21326;SDS011;10822;51.532;6.770;2022-12-24T06:40:25;14.85;;;2.83;;
21326;SDS011;10822;51.532;6.770;2022-12-24T06:42:52;14.30;;;2.95;;
21326;SDS011;10822;51.532;6.770;2022-12-24T06:45:18;16.92;;;3.35;;
21326;SDS011;10822;51.532;6.770;2022-12-24T06:47:44;16.05;;;3.22;;
21326;SDS011;10822;51.532;6.770;2022-12-24T06:50:10;18.13;;;3.05;;
21326;SDS011;10822;51.532;6.770;2022-12-24T06:52:36;12.43;;;3.00;;
21326;SDS011;10822;51.532;6.770;2022-12-24T06:55:02;15.32;;;2.83;;
21326;SDS011;10822;51.532;6.770;2022-12-24T06:57:28;17.52;;;3.03;;
21326;SDS011;10822;51.532;6.770;2022-12-24T06:59:55;16.25;;;3.35;;
21326;SDS011;10822;51.532;6.770;2022-12-24T07:02:21;15.07;;;2.95;;
21326;SDS011;10822;51.532;6.770;2022-12-24T07:04:48;19.42;;;3.20;;
21326;SDS011;10822;51.532;6.770;2022-12-24T07:07:14;16.17;;;3.17;;
21326;SDS011;10822;51.532;6.770;2022-12-24T07:09:40;13.45;;;3.25;;
21326;SDS011;10822;51.532;6.770;2022-12-24T07:12:06;16.83;;;3.67;;
21326;SDS011;10822;51.532;6.770;2022-12-24T07:14:32;12.60;;;3.08;;
21326;SDS011;10822;51.532;6.770;2022-12-24T07:16:58;13.10;;;3.72;;
21326;SDS011;10822;51.532;6.770;2022-12-24T07:19:24;17.98;;;3.22;;
21326;SDS011;10822;51.532;6.770;2022-12-24T07:21:50;13.20;;;3.33;;
21326;SDS011;10822;51.532;6.770;2022-12-24T07:24:16;19.15;;;4.38;;
21326;SDS011;10822;51.532;6.770;2022-12-24T07:26:42;21.30;;;4.57;;
21326;SDS011;10822;51.532;6.770;2022-12-24T07:29:08;18.15;;;4.07;;
21326;SDS011;10822;51.532;6.770;2022-12-24T07:31:34;14.43;;;4.13;;
21326;SDS011;10822;51.532;6.770;2022-12-24T07:34:00;12.68;;;4.20;;
21326;SDS011;10822;51.532;6.770;2022-12-24T07:36:26;19.92;;;4.43;;
21326;SDS011;10822;51.532;6.770;2022-12-24T07:38:52;19.60;;;4.10;;
21326;SDS011;10822;51.532;6.770;2022-12-24T07:41:18;12.43;;;4.00;;
21326;SDS011;10822;51.532;6.770;2022-12-24T07:43:44;18.75;;;5.45;;
21326;SDS011;10822;51.532;6.770;2022-12-24T07:46:10;15.05;;;4.15;;
21326;SDS011;10822;51.532;6.770;2022-12-24T07:48:36;21.48;;;4.80;;
21326;SDS011;10822;51.532;6.770;2022-12-24T07:51:02;16.25;;;5.47;;
21326;SDS011;10822;51.532;6.770;2022-12-24T07:53:28;15.85;;;4.85;;
21326;SDS011;10822;51.532;6.770;2022-12-24T07:55:54;15.05;;;3.90;;
21326;SDS011;10822;51.532;6.770;2022-12-24T07:58:20;17.23;;;3.83;;
21326;SDS011;10822;51.532;6.770;2022-12-24T08:00:47;16.92;;;4.15;;
21326;SDS011;10822;51.532;6.770;2022-12-24T08:03:16;22.48;;;4.80;;
21326;SDS011;10822;51.532;6.770;2022-12-24T08:05:43;16.75;;;3.10;;
21326;SDS011;10822;51.532;6.770;2022-12-24T08:08:09;18.02;;;3.63;;
21326;SDS011;10822;51.532;6.770;2022-12-24T08:10:37;17.00;;;3.97;;
21326;SDS011;10822;51.532;6.770;2022-12-24T08:13:03;15.85;;;3.28;;
21326;SDS011;10822;51.532;6.770;2022-12-24T08:15:29;23.75;;;4.82;;
21326;SDS011;10822;51.532;6.770;2022-12-24T08:17:55;17.25;;;3.33;;
21326;SDS011;10822;51.532;6.770;2022-12-24T08:20:21;18.02;;;4.18;;
21326;SDS011;10822;51.532;6.770;2022-12-24T08:22:47;17.30;;;3.45;;
21326;SDS011;10822;51.532;6.770;2022-12-24T08:25:13;17.23;;;3.53;;
21326;SDS011;10822;51.532;6.770;2022-12-24T08:27:39;16.88;;;3.28;;
21326;SDS011;10822;51.532;6.770;2022-12-24T08:30:06;19.92;;;4.60;;
21326;SDS011;10822;51.532;6.770;2022-12-24T08:32:32;16.98;;;3.33;;
21326;SDS011;10822;51.532;6.770;2022-12-24T08:34:59;19.60;;;3.70;;
21326;SDS011;10822;51.532;6.770;2022-12-24T08:37:25;18.23;;;3.97;;
21326;SDS011;10822;51.532;6.770;2022-12-24T08:39:51;17.83;;;3.80;;
21326;SDS011;10822;51.532;6.770;2022-12-24T08:42:17;14.60;;;3.03;;
21326;SDS011;10822;51.532;6.770;2022-12-24T08:44:43;24.60;;;4.47;;
21326;SDS011;10822;51.532;6.770;2022-12-24T08:47:09;17.98;;;3.22;;
21326;SDS011;10822;51.532;6.770;2022-12-24T08:49:35;19.85;;;4.03;;
21326;SDS011;10822;51.532;6.770;2022-12-24T08:52:01;23.20;;;3.60;;
21326;SDS011;10822;51.532;6.770;2022-12-24T08:54:27;23.17;;;3.83;;
21326;SDS011;10822;51.532;6.770;2022-12-24T08:56:53;12.95;;;3.10;;
21326;SDS011;10822;51.532;6.770;2022-12-24T08:59:19;23.90;;;4.20;;
21326;SDS011;10822;51.532;6.770;2022-12-24T09:01:45;14.73;;;3.47;;
21326;SDS011;10822;51.532;6.770;2022-12-24T09:04:11;20.98;;;4.07;;
21326;SDS011;10822;51.532;6.770;2022-12-24T09:06:37;15.82;;;4.43;;
21326;SDS011;10822;51.532;6.770;2022-12-24T09:09:03;19.15;;;4.28;;
21326;SDS011;10822;51.532;6.770;2022-12-24T09:11:30;21.13;;;4.10;;
21326;SDS011;10822;51.532;6.770;2022-12-24T09:13:56;20.55;;;4.18;;
21326;SDS011;10822;51.532;6.770;2022-12-24T09:16:22;22.45;;;3.50;;
21326;SDS011;10822;51.532;6.770;2022-12-24T09:18:48;19.92;;;4.07;;
21326;SDS011;10822;51.532;6.770;2022-12-24T09:21:14;16.52;;;3.65;;
21326;SDS011;10822;51.532;6.770;2022-12-24T09:23:42;21.70;;;4.13;;
21326;SDS011;10822;51.532;6.770;2022-12-24T09:26:09;19.15;;;3.92;;
21326;SDS011;10822;51.532;6.770;2022-12-24T09:28:36;20.35;;;4.28;;
21326;SDS011;10822;51.532;6.770;2022-12-24T09:31:02;21.92;;;3.30;;
21326;SDS011;10822;51.532;6.770;2022-12-24T09:33:29;27.70;;;4.53;;
21326;SDS011;10822;51.532;6.770;2022-12-24T09:35:56;17.60;;;4.13;;
21326;SDS011;10822;51.532;6.770;2022-12-24T09:38:22;22.98;;;4.10;;
21326;SDS011;10822;51.532;6.770;2022-12-24T09:40:49;18.88;;;4.07;;
21326;SDS011;10822;51.532;6.770;2022-12-24T09:43:17;17.70;;;3.83;;
21326;SDS011;10822;51.532;6.770;2022-12-24T09:45:45;23.25;;;4.97;;
21326;SDS011;10822;51.532;6.770;2022-12-24T09:48:14;19.48;;;4.88;;
21326;SDS011;10822;51.532;6.770;2022-12-24T09:50:45;18.92;;;3.92;;
21326;SDS011;10822;51.532;6.770;2022-12-24T09:53:19;19.98;;;4.47;;
21326;SDS011;10822;51.532;6.770;2022-12-24T09:55:49;14.57;;;3.78;;
21326;SDS011;10822;51.532;6.770;2022-12-24T09:58:21;22.95;;;4.90;;
21326;SDS011;10822;51.532;6.770;2022-12-24T10:00:48;17.55;;;4.15;;
21326;SDS011;10822;51.532;6.770;2022-12-24T10:03:14;17.70;;;3.88;;
21326;SDS011;10822;51.532;6.770;2022-12-24T10:05:50;16.67;;;4.45;;
21326;SDS011;10822;51.532;6.770;2022-12-24T10:11:17;20.75;;;3.97;;
21326;SDS011;10822;51.532;6.770;2022-12-24T10:24:18;19.65;;;3.90;;
21326;SDS011;10822;51.532;6.770;2022-12-24T10:26:57;12.27;;;2.97;;
21326;SDS011;10822;51.532;6.770;2022-12-24T10:29:26;18.60;;;3.78;;
21326;SDS011;10822;51.532;6.770;2022-12-24T10:34:29;20.50;;;4.35;;
21326;SDS011;10822;51.532;6.770;2022-12-24T10:36:56;19.92;;;4.55;;
21326;SDS011;10822;51.532;6.770;2022-12-24T10:39:24;20.77;;;4.95;;
21326;SDS011;10822;51.532;6.770;2022-12-24T10:41:51;20.17;;;4.40;;
21326;SDS011;10822;51.532;6.770;2022-12-24T10:44:20;20.17;;;3.92;;
21326;SDS011;10822;51.532;6.770;2022-12-24T10:46:47;21.17;;;4.53;;
21326;SDS011;10822;51.532;6.770;2022-12-24T10:49:18;25.27;;;4.47;;
21326;SDS011;10822;51.532;6.770;2022-12-24T10:54:11;16.55;;;3.83;;
21326;SDS011;10822;51.532;6.770;2022-12-24T10:56:42;22.13;;;4.45;;
21326;SDS011;10822;51.532;6.770;2022-12-24T10:59:25;22.25;;;5.65;;
21326;SDS011;10822;51.532;6.770;2022-12-24T11:01:53;23.60;;;5.05;;
21326;SDS011;10822;51.532;6.770;2022-12-24T11:04:44;22.63;;;3.90;;
21326;SDS011;10822;51.532;6.770;2022-12-24T11:07:09;20.60;;;3.85;;
21326;SDS011;10822;51.532;6.770;2022-12-24T11:09:43;23.13;;;4.57;;
21326;SDS011;10822;51.532;6.770;2022-12-24T11:12:20;23.75;;;4.63;;
21326;SDS011;10822;51.532;6.770;2022-12-24T11:14:47;17.73;;;3.67;;
21326;SDS011;10822;51.532;6.770;2022-12-24T11:17:20;24.35;;;4.28;;
21326;SDS011;10822;51.532;6.770;2022-12-24T11:19:47;18.58;;;5.28;;
21326;SDS011;10822;51.532;6.770;2022-12-24T11:22:18;26.23;;;4.95;;
21326;SDS011;10822;51.532;6.770;2022-12-24T11:24:45;18.90;;;4.13;;
21326;SDS011;10822;51.532;6.770;2022-12-24T11:29:48;24.15;;;6.63;;
21326;SDS011;10822;51.532;6.770;2022-12-24T11:32:19;28.33;;;6.07;;
21326;SDS011;10822;51.532;6.770;2022-12-24T11:34:45;17.85;;;5.25;;
21326;SDS011;10822;51.532;6.770;2022-12-24T11:37:22;23.58;;;5.78;;
21326;SDS011;10822;51.532;6.770;2022-12-24T11:39:49;14.77;;;3.50;;
21326;SDS011;10822;51.532;6.770;2022-12-24T11:42:23;21.38;;;5.00;;
21326;SDS011;10822;51.532;6.770;2022-12-24T11:44:49;18.70;;;4.60;;
21326;SDS011;10822;51.532;6.770;2022-12-24T11:47:15;16.88;;;4.22;;
21326;SDS011;10822;51.532;6.770;2022-12-24T11:49:41;16.60;;;4.18;;
21326;SDS011;10822;51.532;6.770;2022-12-24T11:54:39;17.52;;;4.40;;
21326;SDS011;10822;51.532;6.770;2022-12-24T11:57:07;23.90;;;5.95;;
21326;SDS011;10822;51.532;6.770;2022-12-24T11:59:36;16.90;;;4.80;;
21326;SDS011;10822;51.532;6.770;2022-12-24T12:02:14;19.58;;;4.90;;
21326;SDS011;10822;51.532;6.770;2022-12-24T12:04:42;19.95;;;5.97;;
21326;SDS011;10822;51.532;6.770;2022-12-24T12:07:12;27.85;;;7.78;;
21326;SDS011;10822;51.532;6.770;2022-12-24T12:09:43;23.55;;;6.88;;
21326;SDS011;10822;51.532;6.770;2022-12-24T12:12:17;24.20;;;6.00;;
21326;SDS011;10822;51.532;6.770;2022-12-24T12:14:49;28.67;;;8.32;;
21326;SDS011;10822;51.532;6.770;2022-12-24T12:17:32;30.55;;;8.40;;
21326;SDS011;10822;51.532;6.770;2022-12-24T12:24:51;22.73;;;6.40;;
21326;SDS011;10822;51.532;6.770;2022-12-24T12:29:48;22.27;;;5.32;;
21326;SDS011;10822;51.532;6.770;2022-12-24T12:33:02;24.95;;;5.18;;
21326;SDS011;10822;51.532;6.770;2022-12-24T12:35:14;20.02;;;5.18;;
21326;SDS011;10822;51.532;6.770;2022-12-24T12:37:47;19.00;;;5.70;;
21326;SDS011;10822;51.532;6.770;2022-12-24T12:40:17;19.27;;;4.43;;
21326;SDS011;10822;51.532;6.770;2022-12-24T12:42:52;19.33;;;4.18;;
21326;SDS011;10822;51.532;6.770;2022-12-24T12:48:32;16.88;;;3.70;;
21326;SDS011;10822;51.532;6.770;2022-12-24T12:51:07;13.25;;;3.50;;
21326;SDS011;10822;51.532;6.770;2022-12-24T12:53:46;14.55;;;4.22;;
21326;SDS011;10822;51.532;6.770;2022-12-24T13:01:19;15.85;;;3.83;;
21326;SDS011;10822;51.532;6.770;2022-12-24T13:06:43;17.52;;;3.90;;
21326;SDS011;10822;51.532;6.770;2022-12-24T13:14:27;16.98;;;4.22;;
21326;SDS011;10822;51.532;6.770;2022-12-24T13:17:12;18.23;;;4.47;;
21326;SDS011;10822;51.532;6.770;2022-12-24T13:22:27;18.42;;;4.25;;
21326;SDS011;10822;51.532;6.770;2022-12-24T13:24:53;16.15;;;4.20;;
21326;SDS011;10822;51.532;6.770;2022-12-24T13:29:53;18.67;;;4.57;;
21326;SDS011;10822;51.532;6.770;2022-12-24T13:34:57;20.70;;;4.13;;
21326;SDS011;10822;51.532;6.770;2022-12-24T13:37:32;15.27;;;4.40;;
21326;SDS011;10822;51.532;6.770;2022-12-24T13:48:39;14.93;;;5.53;;
21326;SDS011;10822;51.532;6.770;2022-12-24T13:53:16;19.50;;;4.88;;
21326;SDS011;10822;51.532;6.770;2022-12-24T13:55:50;21.15;;;5.45;;
21326;SDS011;10822;51.532;6.770;2022-12-24T13:58:17;14.68;;;4.43;;
21326;SDS011;10822;51.532;6.770;2022-12-24T14:01:02;17.90;;;5.72;;
21326;SDS011;10822;51.532;6.770;2022-12-24T14:03:34;19.13;;;5.22;;
21326;SDS011;10822;51.532;6.770;2022-12-24T14:08:29;14.23;;;3.97;;
21326;SDS011;10822;51.532;6.770;2022-12-24T14:18:37;13.32;;;4.18;;
21326;SDS011;10822;51.532;6.770;2022-12-24T14:21:05;24.58;;;5.00;;
21326;SDS011;10822;51.532;6.770;2022-12-24T14:25:57;13.75;;;4.38;;
21326;SDS011;10822;51.532;6.770;2022-12-24T14:28:27;17.02;;;4.35;;
21326;SDS011;10822;51.532;6.770;2022-12-24T14:31:01;16.35;;;4.28;;
21326;SDS011;10822;51.532;6.770;2022-12-24T14:33:29;19.52;;;4.72;;
21326;SDS011;10822;51.532;6.770;2022-12-24T14:35:55;17.88;;;4.55;;
21326;SDS011;10822;51.532;6.770;2022-12-24T14:38:21;19.02;;;5.47;;
21326;SDS011;10822;51.532;6.770;2022-12-24T14:41:05;17.05;;;5.15;;
21326;SDS011;10822;51.532;6.770;2022-12-24T14:43:41;13.73;;;4.72;;
21326;SDS011;10822;51.532;6.770;2022-12-24T14:51:28;16.77;;;5.53;;
21326;SDS011;10822;51.532;6.770;2022-12-24T14:54:05;11.27;;;3.92;;
21326;SDS011;10822;51.532;6.770;2022-12-24T14:56:34;14.63;;;4.88;;
21326;SDS011;10822;51.532;6.770;2022-12-24T14:59:00;8.93;;;3.55;;
21326;SDS011;10822;51.532;6.770;2022-12-24T15:01:38;14.05;;;4.55;;
21326;SDS011;10822;51.532;6.770;2022-12-24T15:06:31;11.98;;;4.43;;
21326;SDS011;10822;51.532;6.770;2022-12-24T15:08:58;13.35;;;5.78;;
21326;SDS011;10822;51.532;6.770;2022-12-24T15:11:24;20.42;;;8.00;;
21326;SDS011;10822;51.532;6.770;2022-12-24T15:13:51;28.80;;;9.60;;
21326;SDS011;10822;51.532;6.770;2022-12-24T15:16:22;25.20;;;9.02;;
21326;SDS011;10822;51.532;6.770;2022-12-24T15:18:51;24.67;;;9.10;;
21326;SDS011;10822;51.532;6.770;2022-12-24T15:21:24;31.70;;;13.98;;
21326;SDS011;10822;51.532;6.770;2022-12-24T15:23:51;28.55;;;10.77;;
21326;SDS011;10822;51.532;6.770;2022-12-24T15:26:27;21.15;;;7.10;;
21326;SDS011;10822;51.532;6.770;2022-12-24T15:28:55;17.20;;;5.15;;
21326;SDS011;10822;51.532;6.770;2022-12-24T15:31:22;20.30;;;5.80;;
21326;SDS011;10822;51.532;6.770;2022-12-24T15:33:49;15.63;;;5.72;;
21326;SDS011;10822;51.532;6.770;2022-12-24T15:36:26;14.82;;;5.90;;
21326;SDS011;10822;51.532;6.770;2022-12-24T15:38:53;17.38;;;6.38;;
21326;SDS011;10822;51.532;6.770;2022-12-24T15:43:46;26.60;;;10.02;;
21326;SDS011;10822;51.532;6.770;2022-12-24T15:46:23;20.42;;;9.27;;
21326;SDS011;10822;51.532;6.770;2022-12-24T15:48:49;19.83;;;8.90;;
21326;SDS011;10822;51.532;6.770;2022-12-24T15:51:20;16.75;;;7.28;;
21326;SDS011;10822;51.532;6.770;2022-12-24T15:53:46;18.27;;;6.13;;
21326;SDS011;10822;51.532;6.770;2022-12-24T15:56:35;20.48;;;6.68;;
21326;SDS011;10822;51.532;6.770;2022-12-24T16:01:37;15.50;;;5.70;;
21326;SDS011;10822;51.532;6.770;2022-12-24T16:04:14;12.90;;;5.30;;
21326;SDS011;10822;51.532;6.770;2022-12-24T16:09:52;14.40;;;5.68;;
21326;SDS011;10822;51.532;6.770;2022-12-24T16:12:12;13.45;;;5.63;;
21326;SDS011;10822;51.532;6.770;2022-12-24T16:14:39;22.08;;;6.45;;
21326;SDS011;10822;51.532;6.770;2022-12-24T16:17:14;20.67;;;6.32;;
21326;SDS011;10822;51.532;6.770;2022-12-24T16:19:45;17.67;;;6.93;;
21326;SDS011;10822;51.532;6.770;2022-12-24T16:22:11;19.55;;;7.05;;
21326;SDS011;10822;51.532;6.770;2022-12-24T16:25:00;18.55;;;6.40;;
21326;SDS011;10822;51.532;6.770;2022-12-24T16:27:26;16.15;;;6.43;;
21326;SDS011;10822;51.532;6.770;2022-12-24T16:29:52;18.25;;;6.25;;
21326;SDS011;10822;51.532;6.770;2022-12-24T16:34:50;22.63;;;7.10;;
21326;SDS011;10822;51.532;6.770;2022-12-24T16:37:16;14.43;;;6.40;;
21326;SDS011;10822;51.532;6.770;2022-12-24T16:39:42;20.65;;;7.38;;
21326;SDS011;10822;51.532;6.770;2022-12-24T16:42:08;21.10;;;6.15;;
21326;SDS011;10822;51.532;6.770;2022-12-24T16:44:53;15.50;;;4.93;;